createdAt,value
2022-10-14T00:01:44.424Z,88.70
2022-10-14T00:04:10.948Z,88.60
2022-10-14T00:06:38.216Z,88.60
2022-10-14T00:09:08.592Z,88.70
2022-10-14T00:11:36.879Z,88.60
2022-10-14T00:14:08.095Z,88.60
2022-10-14T00:16:39.484Z,88.60
2022-10-14T00:19:06.309Z,88.60
2022-10-14T00:21:33.832Z,88.60
2022-10-14T00:24:00.688Z,88.60
2022-10-14T00:26:30.882Z,88.60
2022-10-14T00:28:59.330Z,88.60
2022-10-14T00:31:27.116Z,88.60
2022-10-14T00:33:54.060Z,88.60
2022-10-14T00:36:22.856Z,88.50
2022-10-14T00:38:50.157Z,88.00
2022-10-14T00:41:35.175Z,88.50
2022-10-14T00:44:10.897Z,88.00
2022-10-14T00:46:39.877Z,88.60
2022-10-14T00:49:16.967Z,88.50
2022-10-14T00:51:50.139Z,88.60
2022-10-14T00:54:18.578Z,88.50
2022-10-14T00:56:47.425Z,88.50
2022-10-14T00:59:15.224Z,88.50
2022-10-14T01:01:41.857Z,88.50
2022-10-14T01:04:08.370Z,87.90
2022-10-14T01:06:49.585Z,88.50
2022-10-14T01:10:02.596Z,88.50
2022-10-14T01:12:36.799Z,88.50
2022-10-14T01:15:06.978Z,88.50
2022-10-14T01:17:45.344Z,88.50
2022-10-14T01:20:33.462Z,88.00
2022-10-14T01:23:13.263Z,87.90
2022-10-14T01:25:58.816Z,87.80
2022-10-14T01:28:52.893Z,87.80
2022-10-14T01:31:26.948Z,88.30
2022-10-14T01:33:57.898Z,88.50
2022-10-14T01:36:54.456Z,87.90
2022-10-14T01:39:27.467Z,88.40
2022-10-14T01:42:01.324Z,87.90
2022-10-14T01:44:30.250Z,88.40
2022-10-14T01:47:00.357Z,88.40
2022-10-14T01:49:36.013Z,88.40
2022-10-14T01:52:08.304Z,87.80
2022-10-14T01:54:40.525Z,88.40
2022-10-14T01:57:15.970Z,87.80
2022-10-14T01:59:43.642Z,87.80
2022-10-14T02:02:12.451Z,87.80
2022-10-14T02:04:39.715Z,87.80
2022-10-14T02:07:17.468Z,87.80
2022-10-14T02:10:08.632Z,87.80
2022-10-14T02:12:48.317Z,87.80
2022-10-14T02:15:20.579Z,87.80
2022-10-14T02:17:58.790Z,87.80
2022-10-14T02:20:32.236Z,87.80
2022-10-14T02:23:20.357Z,87.70
2022-10-14T02:25:49.141Z,87.80
2022-10-14T02:28:19.213Z,87.70
2022-10-14T02:30:52.088Z,87.60
2022-10-14T02:33:22.346Z,87.70
2022-10-14T02:35:50.769Z,87.70
2022-10-14T02:38:19.992Z,87.60
2022-10-14T02:40:49.774Z,87.70
2022-10-14T02:43:18.345Z,87.70
2022-10-14T02:45:44.961Z,87.70
2022-10-14T02:48:12.451Z,87.70
2022-10-14T02:50:39.997Z,87.60
2022-10-14T02:53:06.538Z,87.70
2022-10-14T02:55:33.079Z,87.60
2022-10-14T02:57:59.584Z,88.20
2022-10-14T03:00:26.337Z,87.70
2022-10-14T03:02:52.844Z,88.20
2022-10-14T03:05:19.457Z,87.70
2022-10-14T03:07:45.983Z,87.60
2022-10-14T03:10:12.492Z,87.60
2022-10-14T03:12:39.034Z,87.70
2022-10-14T03:15:06.478Z,87.70
2022-10-14T03:17:33.016Z,87.60
2022-10-14T03:19:59.630Z,88.10
2022-10-14T03:22:26.521Z,87.70
2022-10-14T03:24:53.189Z,87.70
2022-10-14T03:27:19.757Z,87.70
2022-10-14T03:29:46.276Z,87.70
2022-10-14T03:32:12.835Z,87.60
2022-10-14T03:34:39.357Z,87.60
2022-10-14T03:37:06.307Z,87.60
2022-10-14T03:39:32.854Z,87.70
2022-10-14T03:41:59.497Z,88.20
2022-10-14T03:44:26.171Z,87.60
2022-10-14T03:46:52.717Z,87.60
2022-10-14T03:49:19.331Z,87.70
2022-10-14T03:51:45.851Z,87.60
2022-10-14T03:56:39.373Z,87.60
2022-10-14T03:59:05.870Z,87.60
2022-10-14T04:01:32.471Z,87.60
2022-10-14T04:03:59.040Z,87.60
2022-10-14T04:06:25.676Z,87.60
2022-10-14T04:08:52.208Z,87.60
2022-10-14T04:11:18.835Z,87.60
2022-10-14T04:13:45.357Z,87.60
2022-10-14T04:16:12.152Z,87.70
2022-10-14T04:18:39.009Z,87.50
2022-10-14T04:21:11.861Z,87.60
2022-10-14T04:23:38.752Z,87.60
2022-10-14T04:26:08.079Z,88.90
2022-10-14T04:28:35.154Z,87.70
2022-10-14T04:33:28.990Z,87.60
2022-10-14T04:36:04.161Z,87.50
2022-10-14T04:38:30.796Z,87.70
2022-10-14T04:43:24.439Z,92.50
2022-10-14T04:45:51.211Z,93.40
2022-10-14T04:48:18.273Z,92.10
2022-10-14T04:50:45.023Z,91.10
2022-10-14T04:53:13.758Z,90.40
2022-10-14T04:55:40.706Z,90.30
2022-10-14T04:58:07.440Z,90.10
2022-10-14T05:00:33.999Z,90.40
2022-10-14T05:03:00.512Z,90.30
2022-10-14T05:05:27.192Z,89.80
2022-10-14T05:07:53.806Z,89.60
2022-10-14T05:10:20.376Z,89.50
2022-10-14T05:12:46.933Z,89.40
2022-10-14T05:15:13.725Z,89.40
2022-10-14T05:17:40.543Z,89.40
2022-10-14T05:20:07.545Z,89.90
2022-10-14T05:22:34.083Z,89.40
2022-10-14T05:25:00.588Z,89.30
2022-10-14T05:27:27.156Z,89.30
2022-10-14T05:29:53.725Z,89.20
2022-10-14T05:32:20.689Z,89.20
2022-10-14T05:37:14.479Z,89.10
2022-10-14T05:39:41.031Z,91.50
2022-10-14T05:42:07.564Z,92.70
2022-10-14T05:44:34.293Z,93.20
2022-10-14T05:47:00.810Z,93.00
2022-10-14T05:49:27.345Z,92.30
2022-10-14T05:51:53.872Z,91.50
2022-10-14T05:54:20.388Z,91.20
2022-10-14T05:56:47.007Z,91.60
2022-10-14T05:59:13.697Z,91.90
2022-10-14T06:01:40.726Z,91.50
2022-10-14T06:04:07.950Z,91.20
2022-10-14T06:06:34.540Z,90.70
2022-10-14T06:09:01.065Z,90.60
2022-10-14T06:11:27.830Z,90.50
2022-10-14T06:13:54.394Z,90.40
2022-10-14T06:16:20.949Z,90.40
2022-10-14T06:18:51.064Z,90.30
2022-10-14T06:21:20.686Z,90.20
2022-10-14T06:23:47.301Z,90.20
2022-10-14T06:26:13.889Z,90.40
2022-10-14T06:31:07.657Z,90.10
2022-10-14T06:33:34.999Z,90.10
2022-10-14T06:36:03.148Z,90.00
2022-10-14T06:38:29.872Z,90.00
2022-10-14T06:40:56.400Z,90.20
2022-10-14T06:43:23.373Z,90.50
2022-10-14T06:45:50.144Z,90.20
2022-10-14T06:48:16.683Z,90.20
2022-10-14T06:50:43.239Z,90.20
2022-10-14T06:53:09.821Z,90.10
2022-10-14T06:55:36.363Z,90.10
2022-10-14T06:58:02.875Z,90.10
2022-10-14T07:00:29.484Z,90.10
2022-10-14T07:02:58.939Z,90.00
2022-10-14T07:05:26.511Z,90.00
2022-10-14T07:07:53.066Z,90.00
2022-10-14T07:10:19.906Z,90.00
2022-10-14T07:12:46.425Z,90.10
2022-10-14T07:15:12.945Z,90.20
2022-10-14T07:17:39.777Z,90.10
2022-10-14T07:20:07.270Z,90.10
2022-10-14T07:22:38.655Z,90.00
2022-10-14T07:25:06.459Z,90.00
2022-10-14T07:27:33.059Z,90.00
2022-10-14T07:29:59.757Z,90.00
2022-10-14T07:32:26.347Z,90.00
2022-10-14T07:34:52.981Z,90.00
2022-10-14T07:37:19.856Z,90.00
2022-10-14T07:39:46.588Z,90.00
2022-10-14T07:42:13.123Z,89.90
2022-10-14T07:44:39.840Z,90.00
2022-10-14T07:47:07.397Z,92.30
2022-10-14T07:49:33.965Z,93.30
2022-10-14T07:52:00.493Z,94.00
2022-10-14T07:54:29.944Z,94.50
2022-10-14T07:56:57.853Z,94.60
2022-10-14T07:59:25.494Z,94.90
2022-10-14T08:01:53.013Z,95.00
2022-10-14T08:04:19.891Z,94.90
2022-10-14T08:06:50.358Z,95.00
2022-10-14T08:09:18.204Z,95.40
2022-10-14T08:11:45.025Z,95.30
2022-10-14T08:14:11.764Z,94.40
2022-10-14T08:16:39.550Z,94.00
2022-10-14T08:19:14.404Z,93.60
2022-10-14T08:21:43.033Z,93.30
2022-10-14T08:24:10.435Z,93.10
2022-10-14T08:26:39.507Z,92.90
2022-10-14T08:29:12.280Z,92.80
2022-10-14T08:31:38.859Z,92.60
2022-10-14T08:34:05.511Z,92.60
2022-10-14T08:36:32.189Z,92.40
2022-10-14T08:38:58.795Z,92.30
2022-10-14T08:41:55.796Z,92.30
2022-10-14T08:44:27.038Z,92.30
2022-10-14T08:47:00.093Z,92.20
2022-10-14T08:49:37.673Z,92.20
2022-10-14T08:52:12.475Z,92.10
2022-10-14T08:54:44.141Z,92.10
2022-10-14T08:57:34.872Z,92.00
2022-10-14T09:00:02.068Z,91.90
2022-10-14T09:02:47.157Z,91.90
2022-10-14T09:05:15.829Z,92.00
2022-10-14T09:07:44.659Z,91.80
2022-10-14T09:10:41.063Z,91.80
2022-10-14T09:13:15.567Z,91.80
2022-10-14T09:15:45.856Z,91.70
2022-10-14T09:18:38.069Z,91.70
2022-10-14T09:21:47.927Z,91.70
2022-10-14T09:24:13.600Z,91.60
2022-10-14T09:26:43.102Z,91.50
2022-10-14T09:29:29.059Z,91.80
2022-10-14T09:31:58.938Z,91.80
2022-10-14T09:34:38.408Z,91.90
2022-10-14T09:37:28.073Z,91.80
2022-10-14T09:39:59.063Z,91.70
2022-10-14T09:42:51.175Z,91.80
2022-10-14T09:45:22.576Z,91.90
2022-10-14T09:47:58.317Z,91.90
2022-10-14T09:50:53.864Z,91.80
2022-10-14T09:53:45.250Z,91.70
2022-10-14T09:56:13.039Z,91.60
2022-10-14T09:58:44.485Z,91.60
2022-10-14T10:01:19.487Z,91.60
2022-10-14T10:03:47.918Z,91.60
2022-10-14T10:06:19.000Z,91.60
2022-10-14T10:08:55.091Z,91.60
2022-10-14T10:11:33.243Z,91.70
2022-10-14T10:14:14.975Z,91.60
2022-10-14T10:16:41.565Z,91.70
2022-10-14T10:19:31.884Z,91.70
2022-10-14T10:24:52.389Z,91.70
2022-10-14T10:27:21.835Z,91.80
2022-10-14T10:29:48.606Z,91.80
2022-10-14T10:32:35.378Z,91.80
2022-10-14T10:35:14.785Z,91.90
2022-10-14T10:38:00.369Z,91.80
2022-10-14T10:40:26.846Z,91.80
2022-10-14T10:43:12.542Z,91.90
2022-10-14T10:46:08.275Z,91.90
2022-10-14T10:48:50.016Z,91.80
2022-10-14T10:51:39.667Z,91.80
2022-10-14T10:54:35.906Z,91.80
2022-10-14T10:57:12.925Z,91.80
2022-10-14T11:00:01.149Z,91.80
2022-10-14T11:02:55.036Z,92.00
2022-10-14T11:05:52.288Z,91.70
2022-10-14T11:09:06.624Z,91.80
2022-10-14T11:12:03.709Z,91.80
2022-10-14T11:14:36.062Z,91.90
2022-10-14T11:17:23.159Z,92.20
2022-10-14T11:19:58.766Z,91.80
2022-10-14T11:22:41.210Z,91.70
2022-10-14T11:25:49.154Z,91.70
2022-10-14T11:28:57.626Z,91.60
2022-10-14T11:31:51.321Z,91.60
2022-10-14T11:34:36.541Z,91.60
2022-10-14T11:37:42.186Z,91.50
2022-10-14T11:40:14.816Z,91.60
2022-10-14T11:43:13.563Z,91.70
2022-10-14T11:45:50.240Z,91.70
2022-10-14T11:48:22.318Z,91.70
2022-10-14T11:50:54.393Z,91.70
2022-10-14T11:53:27.509Z,91.70
2022-10-14T11:56:29.579Z,91.60
2022-10-14T11:59:03.181Z,91.50
2022-10-14T12:01:35.603Z,91.50
2022-10-14T12:04:12.368Z,91.50
2022-10-14T12:06:55.625Z,91.50
2022-10-14T12:09:31.088Z,91.40
2022-10-14T12:12:08.898Z,91.40
2022-10-14T12:14:50.076Z,91.30
2022-10-14T12:17:24.123Z,91.40
2022-10-14T12:19:51.372Z,91.30
2022-10-14T12:22:25.728Z,91.30
2022-10-14T12:24:55.228Z,91.30
2022-10-14T12:27:25.678Z,91.30
2022-10-14T12:29:55.037Z,91.30
2022-10-14T12:32:31.698Z,91.30
2022-10-14T12:35:01.548Z,91.30
2022-10-14T12:37:32.427Z,91.30
2022-10-14T12:40:02.250Z,90.90
2022-10-14T12:42:30.581Z,90.90
2022-10-14T12:45:01.183Z,91.10
2022-10-14T12:47:35.143Z,90.90
2022-10-14T12:50:06.160Z,91.00
2022-10-14T12:52:37.225Z,90.90
2022-10-14T12:55:17.241Z,90.80
2022-10-14T12:57:43.890Z,90.80
2022-10-14T13:00:22.431Z,90.90
2022-10-14T13:02:51.399Z,90.80
2022-10-14T13:05:38.796Z,90.80
2022-10-14T13:08:19.987Z,90.80
2022-10-14T13:10:50.185Z,90.80
2022-10-14T13:13:53.686Z,90.90
2022-10-14T13:16:26.348Z,90.80
2022-10-14T13:19:02.266Z,91.10
2022-10-14T13:21:34.851Z,90.70
2022-10-14T13:24:03.046Z,90.70
2022-10-14T13:26:43.737Z,90.70
2022-10-14T13:29:16.112Z,90.70
2022-10-14T13:32:04.190Z,90.70
2022-10-14T13:34:36.701Z,90.60
2022-10-14T13:37:32.411Z,90.60
2022-10-14T13:40:34.744Z,90.70
2022-10-14T13:43:08.629Z,90.60
2022-10-14T13:45:42.271Z,90.60
2022-10-14T13:48:19.829Z,90.70
2022-10-14T13:50:50.261Z,90.70
2022-10-14T13:53:20.839Z,90.70
2022-10-14T13:55:54.444Z,90.70
2022-10-14T13:58:23.222Z,90.70
2022-10-14T14:01:04.217Z,90.60
2022-10-14T14:03:44.805Z,90.70
2022-10-14T14:06:14.672Z,90.70
2022-10-14T14:08:51.140Z,90.70
2022-10-14T14:11:21.091Z,90.70
2022-10-14T14:14:00.271Z,90.70
2022-10-14T14:16:33.220Z,90.80
2022-10-14T14:19:08.304Z,90.80
2022-10-14T14:21:35.627Z,91.10
2022-10-14T14:24:06.015Z,90.90
2022-10-14T14:26:37.892Z,90.90
2022-10-14T14:29:20.405Z,90.90
2022-10-14T14:32:06.582Z,90.90
2022-10-14T14:34:35.656Z,90.90
2022-10-14T14:40:21.858Z,90.90
2022-10-14T14:42:58.282Z,90.90
2022-10-14T14:45:30.716Z,90.80
2022-10-14T14:48:01.982Z,90.80
2022-10-14T14:50:33.538Z,90.80
2022-10-14T14:53:15.244Z,90.80
2022-10-14T14:55:53.843Z,90.80
2022-10-14T14:58:26.065Z,90.90
2022-10-14T15:00:54.658Z,90.70
2022-10-14T15:03:24.881Z,90.70
2022-10-14T15:06:15.213Z,90.70
2022-10-14T15:08:41.761Z,90.70
2022-10-14T15:11:08.911Z,90.60
2022-10-14T15:13:38.424Z,90.90
2022-10-14T15:16:06.342Z,90.70
2022-10-14T15:18:33.005Z,90.70
2022-10-14T15:21:11.686Z,90.80
2022-10-14T15:24:00.129Z,90.70
2022-10-14T15:26:35.436Z,91.00
2022-10-14T15:29:07.529Z,90.80
2022-10-14T15:31:38.640Z,91.10
2022-10-14T15:34:05.927Z,90.80
2022-10-14T15:36:34.515Z,90.80
2022-10-14T15:39:02.317Z,91.50
2022-10-14T15:41:29.082Z,91.40
2022-10-14T15:43:55.661Z,91.00
2022-10-14T15:49:15.720Z,91.00
2022-10-14T15:51:42.272Z,91.00
2022-10-14T15:54:14.771Z,90.90
2022-10-14T15:56:41.333Z,90.90
2022-10-14T16:01:37.959Z,91.30
2022-10-14T16:04:05.142Z,91.00
2022-10-14T16:06:32.463Z,91.10
2022-10-14T16:08:59.118Z,91.20
2022-10-14T16:11:28.422Z,91.30
2022-10-14T16:13:55.043Z,91.30
2022-10-14T16:16:26.976Z,91.50
2022-10-14T16:18:53.878Z,91.50
2022-10-14T16:21:20.390Z,91.60
2022-10-14T16:23:46.896Z,91.50
2022-10-14T16:26:14.291Z,91.50
2022-10-14T16:28:40.914Z,91.40
2022-10-14T16:31:12.288Z,91.40
2022-10-14T16:36:14.210Z,91.40
2022-10-14T16:38:40.743Z,91.40
2022-10-14T16:41:09.872Z,91.40
2022-10-14T16:43:36.608Z,91.40
2022-10-14T16:46:04.451Z,91.50
2022-10-14T16:48:33.217Z,91.40
2022-10-14T16:51:00.180Z,91.30
2022-10-14T16:53:41.394Z,91.30
2022-10-14T16:56:30.857Z,91.30
2022-10-14T16:58:58.208Z,91.40
2022-10-14T17:01:25.495Z,91.40
2022-10-14T17:06:23.926Z,91.40
2022-10-14T17:08:51.151Z,91.50
2022-10-14T17:11:18.400Z,91.40
2022-10-14T17:13:45.217Z,91.40
2022-10-14T17:16:11.985Z,91.40
2022-10-14T17:18:38.562Z,91.60
2022-10-14T17:21:11.907Z,91.30
2022-10-14T17:23:43.622Z,91.30
2022-10-14T17:26:13.188Z,91.40
2022-10-14T17:28:40.836Z,91.30
2022-10-14T17:31:10.037Z,91.40
2022-10-14T17:33:37.343Z,91.30
2022-10-14T17:38:35.733Z,91.30
2022-10-14T17:41:05.765Z,91.20
2022-10-14T17:43:32.702Z,91.20
2022-10-14T17:46:12.591Z,91.20
2022-10-14T17:48:43.384Z,91.20
2022-10-14T17:53:38.509Z,91.30
2022-10-14T17:56:11.987Z,91.30
2022-10-14T17:58:39.069Z,91.30
2022-10-14T18:01:10.719Z,90.80
2022-10-14T18:03:40.825Z,91.40
2022-10-14T18:06:18.119Z,91.40
2022-10-14T18:08:50.245Z,91.40
2022-10-14T18:11:17.814Z,91.40
2022-10-14T18:13:44.484Z,91.40
2022-10-14T18:16:13.212Z,91.40
2022-10-14T18:18:41.666Z,93.30
2022-10-14T18:21:09.495Z,92.80
2022-10-14T18:23:38.926Z,92.20
2022-10-14T18:26:10.921Z,92.00
2022-10-14T18:28:42.865Z,91.90
2022-10-14T18:31:27.053Z,91.90
2022-10-14T18:33:54.968Z,91.80
2022-10-14T18:36:24.387Z,91.80
2022-10-14T18:39:11.612Z,91.80
2022-10-14T18:41:38.665Z,91.80
2022-10-14T18:44:06.075Z,91.70
2022-10-14T18:46:40.748Z,91.70
2022-10-14T18:49:10.577Z,91.90
2022-10-14T18:51:39.020Z,92.00
2022-10-14T18:54:08.367Z,92.00
2022-10-14T18:56:40.182Z,92.00
2022-10-14T18:59:18.522Z,92.00
2022-10-14T19:01:47.375Z,92.00
2022-10-14T19:04:15.792Z,91.90
2022-10-14T19:06:45.749Z,91.90
2022-10-14T19:09:13.682Z,91.90
2022-10-14T19:11:41.314Z,91.90
2022-10-14T19:14:08.996Z,91.80
2022-10-14T19:16:37.965Z,91.80
2022-10-14T19:19:18.143Z,91.80
2022-10-14T19:21:46.346Z,91.80
2022-10-14T19:24:13.835Z,91.80
2022-10-14T19:26:43.402Z,91.80
2022-10-14T19:29:12.572Z,91.80
2022-10-14T19:31:39.939Z,91.80
2022-10-14T19:34:08.708Z,91.80
2022-10-14T19:36:38.964Z,91.80
2022-10-14T19:39:07.160Z,91.80
2022-10-14T19:41:38.283Z,91.80
2022-10-14T19:44:04.892Z,91.70
2022-10-14T19:46:31.423Z,91.70
2022-10-14T19:48:59.937Z,91.70
2022-10-14T19:51:27.067Z,91.70
2022-10-14T19:53:57.793Z,91.70
2022-10-14T19:56:25.543Z,91.70
2022-10-14T19:58:58.026Z,91.70
2022-10-14T20:01:26.768Z,91.70
2022-10-14T20:03:53.787Z,91.70
2022-10-14T20:06:21.723Z,91.70
2022-10-14T20:08:48.845Z,91.60
2022-10-14T20:11:17.746Z,91.60
2022-10-14T20:13:45.517Z,91.60
2022-10-14T20:16:12.963Z,91.60
2022-10-14T20:18:39.730Z,91.60
2022-10-14T20:21:07.776Z,91.60
2022-10-14T20:23:36.254Z,91.60
2022-10-14T20:26:07.981Z,91.70
2022-10-14T20:28:36.219Z,91.60
2022-10-14T20:31:05.122Z,91.70
2022-10-14T20:33:32.021Z,91.60
2022-10-14T20:36:19.982Z,91.60
2022-10-14T20:38:47.470Z,91.60
2022-10-14T20:41:15.332Z,91.60
2022-10-14T20:43:42.975Z,91.70
2022-10-14T20:46:09.869Z,91.70
2022-10-14T20:48:39.351Z,91.60
2022-10-14T20:51:14.245Z,91.60
2022-10-14T20:56:13.545Z,91.60
2022-10-14T20:58:40.823Z,91.60
2022-10-14T21:01:17.551Z,91.60
2022-10-14T21:03:45.909Z,91.60
2022-10-14T21:06:18.908Z,91.60
2022-10-14T21:08:46.541Z,91.60
2022-10-14T21:11:15.714Z,91.60
2022-10-14T21:13:47.351Z,91.60
2022-10-14T21:16:15.424Z,91.60
2022-10-14T21:18:46.275Z,91.60
2022-10-14T21:21:15.879Z,91.60
2022-10-14T21:23:43.953Z,91.70
2022-10-14T21:26:10.682Z,91.70
2022-10-14T21:28:37.289Z,91.70
2022-10-14T21:31:08.297Z,91.60
2022-10-14T21:33:35.372Z,91.70
2022-10-14T21:36:04.478Z,91.80
2022-10-14T21:38:31.138Z,91.80
2022-10-14T21:41:00.120Z,91.70
2022-10-14T21:43:28.353Z,91.70
2022-10-14T21:45:54.990Z,91.70
2022-10-14T21:48:22.438Z,91.70
2022-10-14T21:50:49.002Z,91.70
2022-10-14T21:53:16.233Z,91.70
2022-10-14T21:55:42.853Z,91.70
2022-10-14T21:58:09.361Z,91.70
2022-10-14T22:00:35.910Z,91.70
2022-10-14T22:03:02.454Z,91.70
2022-10-14T22:05:29.020Z,91.70
2022-10-14T22:07:55.758Z,91.70
2022-10-14T22:10:57.497Z,91.70
2022-10-14T22:13:25.495Z,91.80
2022-10-14T22:15:52.651Z,91.70
2022-10-14T22:18:19.257Z,91.70
2022-10-14T22:20:46.003Z,91.80
2022-10-14T22:23:12.964Z,91.80
2022-10-14T22:25:39.477Z,91.90
2022-10-14T22:28:06.083Z,91.90
2022-10-14T22:30:34.056Z,91.80
2022-10-14T22:33:00.686Z,91.90
2022-10-14T22:35:27.278Z,91.90
2022-10-14T22:37:53.788Z,91.90
2022-10-14T22:40:20.325Z,91.90
2022-10-14T22:42:51.445Z,92.00
2022-10-14T22:45:18.219Z,92.00
2022-10-14T22:47:44.749Z,92.00
2022-10-14T22:50:11.329Z,91.90
2022-10-14T22:52:38.113Z,91.90
2022-10-14T22:55:05.310Z,91.90
2022-10-14T22:57:31.846Z,91.90
2022-10-14T22:59:58.372Z,91.90
2022-10-14T23:02:25.268Z,91.90
2022-10-14T23:04:52.159Z,91.80
2022-10-14T23:07:18.801Z,91.80
2022-10-14T23:09:45.924Z,91.80
2022-10-14T23:12:12.494Z,91.80
2022-10-14T23:14:39.020Z,91.80
2022-10-14T23:17:05.535Z,91.80
2022-10-14T23:19:32.061Z,91.70
2022-10-14T23:21:58.568Z,91.70
2022-10-14T23:24:25.568Z,91.70
2022-10-14T23:26:52.083Z,91.70
2022-10-14T23:29:18.691Z,91.70
2022-10-14T23:31:45.195Z,91.70
2022-10-14T23:34:13.537Z,91.70
2022-10-14T23:36:40.689Z,91.70
2022-10-14T23:39:07.394Z,91.70
2022-10-14T23:41:34.007Z,91.70
2022-10-14T23:44:00.546Z,91.70
2022-10-14T23:46:27.060Z,91.60
2022-10-14T23:49:06.909Z,91.60
2022-10-14T23:51:34.862Z,91.60
2022-10-14T23:54:01.392Z,91.60
2022-10-14T23:56:27.957Z,91.60
2022-10-14T23:58:54.465Z,91.60
